Главная страница
METAR-TAF:

METAR-TAF

Аэропорты :

Миккели, Финляндия

широта: 61-44N, долгота: 027-18E, высота над уровнем моря: 138 м

Текущие метеонаблюдения

Эта сводка был подготовлена 15 минут назад, в 09:50 UTC
Ветер 4 Узел от западно-северо-западный, изменяющийся между южный-юго-западный и северно-северо-западный
Температура 2°C
Влажность 93%
Давление 1024 hPa
Видимость 10 км и более
Отдельные облака на высоте 400 фута
Рассеянная облачность на высоте 1600 фута

METAR: EFMI 210950Z AUTO 29004KT 210V340 9999 SCT004 BKN016 02/01 Q1024

Время: 13:05 (10:05 UTC)


TAF: отсутствует

Метеонаблюдения и прогнозы для более 4000 аэропортов (сводки METAR и TAF).

Имеющиеся станции представлены на карте желтыми и красными точками.

Чтобы увидеть название станции, наведите на нее мышь.

Затем щелкните, чтобы увидеть метеонаблюдения и метеопрогнозы.

Управление картой: чтобы увеличить масштаб, щелкните зеленые кнопки с черным крестиком; чтобы уменьшить масштаб, щелкните зеленую кнопку с тире; для просмотра соседних карт щелкайте зеленые стрелки.


METAR-TAF: